EGTD weather

Dunsfold Aerodrome
Dunsfold, England, United Kingdom

Public forecast

Using degrees Celsius for public forecast. Weather courtesy of forecast.io.

METAR (pilot weather report)

Closest report is Farnborough Airport, 13.1 nm (24.3 km) NW. Retrieved 2019/05/21 12:20 UTC (0 seconds ago):

EGLF 211220Z 31007KT 280V340 9999 FEW049 18/06 Q1018

TAF (pilot weather forecast)

Forecast is more than 12 hours old.

Closest forecast is Farnborough Airport, 13.1 nm (24.3 km) NW. Retrieved 2016/04/18 18:00 UTC (3 years ago):

TAF EGLF 181658Z 1818/1821 26008KT 9999 BKN040